EZF weather

Public forecast

Using degrees Fahrenheit for public forecast. Weather courtesy of forecast.io.

Current aviation weather report (METAR) for Shannon Airport

Retrieved 2020/08/09 16:35 UTC (0 seconds ago):

KEZF 091635Z AUTO 19006KT 10SM SCT034 SCT043 BKN065 31/24 A3013 RMK AO2 T03080237

Closest aviation forecast (TAF) to Shannon Airport

Forecast is more than 12 hours old.

Closest forecast is Quantico MCAF /Turner field, 15.6 nm (29.0 km) NNE. Retrieved 2016/02/08 15:59 UTC (5 years ago):

TAF COR KNYG 081500Z 0815/0915 VRB06KT 9999 FEW080 SCT180 620209 621105 540009 540909 QNH2970INS BECMG 0822/0823 VRB06KT 9000 -RA FEW030 SCT080 BKN120 620209 621105 540009 540909 QNH2952INS BECMG 0905/0907 VRB06KT 8000 RASN 600000 500000 BKN020 OVC030 500000 QNH2947INS T07/0820Z T00/0911Z COR 1553